KMDD/MDD METAR and TAF weather

Enter ICAO airport designator
Station Type Date Time Source
KMDD METAR 2020/04/01 22:55 UTC NOAA

KMDD 012255Z AUTO 17015G24KT 10SM CLR 22/10 A2978 RMK AO2 T02230096


Station Type Date Time Source
KMDD Decoded METAR 2020/04/01 22:55 UTC NOAA

Midland, Midland Airpark, TX, United States (KMDD) 32-02-11N 102-06-03W
Apr 01, 2020 - 06:55 PM EDT / 2020.04.01 2255 UTC
Wind: from the S (170 degrees) at 17 MPH (15 KT) gusting to 28 MPH (24 KT):0
Visibility: 10 mile(s):0
Sky conditions: clear
Temperature: 72.1 F (22.3 C)
Dew Point: 49.3 F (9.6 C)
Relative Humidity: 44%
Pressure (altimeter): 29.78 in. Hg (1008 hPa)
ob: KMDD 012255Z AUTO 17015G24KT 10SM CLR 22/10 A2978 RMK AO2 T02230096
cycle: 23

Station Type Date Time Source
KMDD TAF UTC NOAA

Error!

Example: see airport list